Time;durP1;ratioP1;P1;durP2;ratioP2;P2;SDS_P1;SDS_P2;PMS_P1;PMS_P2;Temp;Humidity;BMP_temperature;BMP_pressure;BME280_temperature;BME280_humidity;BME280_pressure;Samples;Min_cycle;Max_cycle;Signal;HPM_P1;HPM_P2
2024/03/21 00:00:36;;;;;;;6.90;3.45;;;;;;;;;;5069971;28;20056;-60
2024/03/21 00:03:03;;;;;;;6.35;3.90;;;;;;;;;;5066316;28;20060;-60
2024/03/21 00:05:30;;;;;;;6.82;4.00;;;;;;;;;;5068454;28;20057;-59
2024/03/21 00:07:57;;;;;;;6.43;4.32;;;;;;;;;;5067572;28;20269;-60
2024/03/21 00:10:23;;;;;;;7.85;4.40;;;;;;;;;;5061558;28;20489;-60
2024/03/21 00:12:50;;;;;;;6.00;3.92;;;;;;;;;;5054827;28;20044;-59
2024/03/21 00:15:16;;;;;;;6.18;3.85;;;;;;;;;;5070996;28;20052;-59
2024/03/21 00:17:45;;;;;;;5.82;4.10;;;;;;;;;;5070872;28;20371;-60
2024/03/21 00:20:11;;;;;;;6.55;4.50;;;;;;;;;;5071142;28;20048;-60
2024/03/21 00:22:38;;;;;;;6.68;3.80;;;;;;;;;;5069753;28;20048;-60
2024/03/21 00:25:05;;;;;;;5.38;3.60;;;;;;;;;;5059516;28;20052;-59
2024/03/21 00:27:32;;;;;;;7.13;4.30;;;;;;;;;;5068252;28;20056;-58
2024/03/21 00:29:58;;;;;;;6.65;4.30;;;;;;;;;;5053421;28;20056;-60
2024/03/21 00:32:26;;;;;;;7.07;3.92;;;;;;;;;;5063775;28;20076;-59
2024/03/21 00:34:54;;;;;;;6.75;4.97;;;;;;;;;;5067125;28;20446;-59
2024/03/21 00:37:21;;;;;;;8.35;4.47;;;;;;;;;;5061783;28;20048;-60
2024/03/21 00:39:48;;;;;;;6.22;4.10;;;;;;;;;;5077311;28;20052;-59
2024/03/21 00:42:15;;;;;;;6.35;3.90;;;;;;;;;;5062522;28;20053;-60
2024/03/21 00:44:41;;;;;;;7.20;4.78;;;;;;;;;;5062290;28;20049;-59
2024/03/21 00:47:08;;;;;;;6.43;4.07;;;;;;;;;;5071172;28;20517;-59
2024/03/21 00:49:34;;;;;;;5.30;3.80;;;;;;;;;;5071882;28;20048;-59
2024/03/21 00:52:02;;;;;;;5.78;3.80;;;;;;;;;;5072654;28;20102;-60
2024/03/21 00:54:28;;;;;;;4.93;3.80;;;;;;;;;;5074715;28;20410;-59
2024/03/21 00:56:55;;;;;;;6.20;3.53;;;;;;;;;;5066253;28;20045;-59
2024/03/21 00:59:21;;;;;;;6.07;4.10;;;;;;;;;;5051901;28;20056;-60
2024/03/21 01:01:49;;;;;;;4.93;3.65;;;;;;;;;;5068857;28;20048;-59
2024/03/21 01:04:15;;;;;;;8.30;3.70;;;;;;;;;;5054696;28;20419;-59
2024/03/21 01:06:43;;;;;;;8.13;4.10;;;;;;;;;;5066451;28;20128;-60
2024/03/21 01:09:11;;;;;;;6.85;4.43;;;;;;;;;;5065458;28;20052;-59
2024/03/21 01:11:38;;;;;;;7.30;4.10;;;;;;;;;;5072853;28;20078;-59
2024/03/21 01:14:04;;;;;;;7.97;4.55;;;;;;;;;;5056634;28;20068;-60
2024/03/21 01:16:31;;;;;;;6.72;4.43;;;;;;;;;;5052267;28;20049;-60
2024/03/21 01:18:57;;;;;;;7.43;3.97;;;;;;;;;;5055379;28;20502;-60
2024/03/21 01:21:24;;;;;;;8.00;3.95;;;;;;;;;;5051873;28;20059;-59
2024/03/21 01:23:50;;;;;;;6.88;4.30;;;;;;;;;;5077561;28;20047;-60
2024/03/21 01:26:18;;;;;;;7.05;4.50;;;;;;;;;;5092126;28;20058;-59
2024/03/21 01:28:44;;;;;;;7.72;4.20;;;;;;;;;;5074817;28;20044;-59
2024/03/21 01:31:16;;;;;;;6.97;4.40;;;;;;;;;;5064272;28;20056;-59
2024/03/21 01:33:42;;;;;;;7.50;4.50;;;;;;;;;;5059208;28;20053;-60
2024/03/21 01:36:09;;;;;;;6.82;4.18;;;;;;;;;;5052172;28;20490;-59
2024/03/21 01:38:35;;;;;;;5.03;4.10;;;;;;;;;;5072910;28;20055;-60
2024/03/21 01:41:02;;;;;;;6.43;4.00;;;;;;;;;;5053628;28;20461;-59
2024/03/21 01:43:30;;;;;;;7.30;3.67;;;;;;;;;;5058627;28;20056;-59
2024/03/21 01:46:14;;;;;;;4.60;3.53;;;;;;;;;;5057175;28;20052;-59
2024/03/21 01:48:40;;;;;;;6.05;4.00;;;;;;;;;;5058545;28;20057;-61
2024/03/21 01:51:07;;;;;;;6.82;4.00;;;;;;;;;;5058341;28;20049;-60
2024/03/21 01:53:33;;;;;;;6.13;3.70;;;;;;;;;;5057208;28;20048;-60
2024/03/21 01:56:00;;;;;;;7.55;4.40;;;;;;;;;;5057305;28;20079;-60
2024/03/21 01:58:26;;;;;;;5.53;3.97;;;;;;;;;;5067904;28;20059;-60
2024/03/21 02:00:55;;;;;;;6.50;3.53;;;;;;;;;;5054686;28;20103;-60
2024/03/21 02:03:21;;;;;;;6.97;4.00;;;;;;;;;;5059023;28;20063;-60
2024/03/21 02:05:47;;;;;;;5.10;3.78;;;;;;;;;;5071491;28;20052;-60
2024/03/21 02:08:13;;;;;;;7.35;4.32;;;;;;;;;;5069254;28;20052;-60
2024/03/21 02:10:40;;;;;;;9.15;4.35;;;;;;;;;;5081287;28;20064;-60
2024/03/21 02:13:06;;;;;;;7.22;4.38;;;;;;;;;;5061628;28;20049;-60
2024/03/21 02:15:33;;;;;;;5.57;4.20;;;;;;;;;;5059074;28;20045;-59
2024/03/21 02:18:00;;;;;;;6.68;4.20;;;;;;;;;;5061426;28;20053;-60
2024/03/21 02:20:27;;;;;;;6.60;4.43;;;;;;;;;;5074421;28;20378;-59
2024/03/21 02:22:54;;;;;;;7.22;4.57;;;;;;;;;;5072384;28;20494;-59
2024/03/21 02:25:21;;;;;;;7.13;4.45;;;;;;;;;;5091359;28;20056;-59
2024/03/21 02:27:47;;;;;;;8.85;4.20;;;;;;;;;;5089590;28;20049;-59
2024/03/21 02:30:14;;;;;;;5.97;4.20;;;;;;;;;;5069886;28;20055;-59
2024/03/21 02:32:40;;;;;;;8.93;4.70;;;;;;;;;;5058767;28;20044;-59
2024/03/21 02:35:08;;;;;;;6.20;4.28;;;;;;;;;;5071502;28;20049;-61
2024/03/21 02:37:34;;;;;;;6.63;4.78;;;;;;;;;;5061737;28;20048;-61
2024/03/21 02:40:02;;;;;;;9.23;5.20;;;;;;;;;;5078972;28;20044;-60
2024/03/21 02:42:28;;;;;;;6.35;4.68;;;;;;;;;;5070596;28;20056;-60
2024/03/21 02:44:55;;;;;;;6.78;4.78;;;;;;;;;;5061392;28;20498;-60
2024/03/21 02:47:21;;;;;;;6.40;4.57;;;;;;;;;;5059710;28;20049;-60
2024/03/21 02:49:48;;;;;;;5.18;4.13;;;;;;;;;;5073412;28;20565;-61
2024/03/21 02:52:13;;;;;;;6.28;4.50;;;;;;;;;;5073612;28;20052;-60
2024/03/21 02:54:40;;;;;;;9.20;4.78;;;;;;;;;;5073943;28;20387;-60
2024/03/21 02:57:08;;;;;;;7.63;5.45;;;;;;;;;;5074494;28;20052;-61
2024/03/21 02:59:35;;;;;;;8.63;5.45;;;;;;;;;;5061004;28;20049;-60
2024/03/21 03:02:02;;;;;;;7.65;5.03;;;;;;;;;;5065706;28;20059;-61
2024/03/21 03:04:29;;;;;;;6.68;5.32;;;;;;;;;;5060417;28;20048;-61
2024/03/21 03:06:55;;;;;;;8.95;5.68;;;;;;;;;;5053983;28;20059;-60
2024/03/21 03:09:22;;;;;;;11.35;5.57;;;;;;;;;;5059415;28;20055;-61
2024/03/21 03:11:48;;;;;;;8.90;5.55;;;;;;;;;;5082757;28;20406;-60
2024/03/21 03:14:16;;;;;;;8.18;5.65;;;;;;;;;;5060468;28;20083;-60
2024/03/21 03:16:42;;;;;;;7.65;5.55;;;;;;;;;;5057121;28;20048;-61
2024/03/21 03:19:08;;;;;;;6.30;5.25;;;;;;;;;;5055950;28;20394;-60
2024/03/21 03:21:34;;;;;;;8.60;5.18;;;;;;;;;;5072415;28;20470;-60
2024/03/21 03:24:01;;;;;;;7.18;4.35;;;;;;;;;;5057216;28;20128;-60
2024/03/21 03:26:27;;;;;;;6.03;3.95;;;;;;;;;;5089926;28;20063;-60
2024/03/21 03:28:53;;;;;;;5.47;3.72;;;;;;;;;;5066720;28;20475;-61
2024/03/21 03:31:20;;;;;;;7.60;5.30;;;;;;;;;;5052894;28;20049;-61
2024/03/21 03:36:31;;;;;;;7.53;5.07;;;;;;;;;;5067808;28;20052;-61
2024/03/21 03:38:58;;;;;;;7.55;5.13;;;;;;;;;;5073907;28;20048;-61
2024/03/21 03:41:25;;;;;;;9.82;5.00;;;;;;;;;;5070539;28;20045;-61
2024/03/21 03:43:52;;;;;;;8.38;4.93;;;;;;;;;;5054519;28;20418;-60
2024/03/21 03:46:19;;;;;;;7.50;5.22;;;;;;;;;;5053813;28;20068;-61
2024/03/21 03:48:47;;;;;;;8.60;5.43;;;;;;;;;;5054177;28;20060;-61
2024/03/21 03:51:13;;;;;;;9.57;6.18;;;;;;;;;;5053800;28;20455;-61
2024/03/21 03:53:39;;;;;;;7.43;5.95;;;;;;;;;;5067635;28;20059;-61
2024/03/21 03:56:06;;;;;;;9.77;5.88;;;;;;;;;;5072685;28;20048;-61
2024/03/21 03:58:32;;;;;;;7.43;5.82;;;;;;;;;;5062385;28;20052;-60
2024/03/21 04:00:59;;;;;;;10.18;6.28;;;;;;;;;;5053722;28;20457;-60
2024/03/21 04:03:26;;;;;;;9.70;6.60;;;;;;;;;;5053156;28;20061;-61
2024/03/21 04:05:58;;;;;;;8.27;5.93;;;;;;;;;;5064798;28;20059;-60
2024/03/21 04:08:23;;;;;;;8.95;6.90;;;;;;;;;;5073768;28;20076;-60
2024/03/21 04:10:50;;;;;;;10.20;7.15;;;;;;;;;;5067840;28;20052;-60
2024/03/21 04:13:16;;;;;;;10.27;6.88;;;;;;;;;;5071957;28;20059;-60
2024/03/21 04:15:43;;;;;;;9.63;7.60;;;;;;;;;;5053261;28;20131;-60
2024/03/21 04:18:09;;;;;;;10.95;7.40;;;;;;;;;;5053433;28;20056;-61
2024/03/21 04:20:36;;;;;;;11.30;7.95;;;;;;;;;;5053487;28;20045;-61
2024/03/21 04:23:03;;;;;;;11.40;7.72;;;;;;;;;;5053470;28;20049;-60
2024/03/21 04:25:30;;;;;;;10.23;7.53;;;;;;;;;;5054706;28;20049;-61
2024/03/21 04:27:56;;;;;;;8.80;7.20;;;;;;;;;;5052775;28;20079;-61
2024/03/21 04:30:23;;;;;;;12.27;7.40;;;;;;;;;;5066780;28;20048;-61
2024/03/21 04:32:49;;;;;;;9.07;6.88;;;;;;;;;;5053441;28;20060;-61
2024/03/21 04:35:16;;;;;;;10.93;7.47;;;;;;;;;;5053265;28;20088;-60
2024/03/21 04:37:43;;;;;;;9.30;6.60;;;;;;;;;;5053103;28;20420;-61
2024/03/21 04:40:11;;;;;;;10.25;5.95;;;;;;;;;;5052775;28;20049;-60
2024/03/21 04:42:37;;;;;;;9.55;5.85;;;;;;;;;;5054485;28;20061;-61
2024/03/21 04:45:05;;;;;;;8.48;6.78;;;;;;;;;;5052746;28;20061;-61
2024/03/21 04:47:32;;;;;;;9.55;6.80;;;;;;;;;;5053684;28;20594;-60
2024/03/21 04:49:59;;;;;;;8.48;6.35;;;;;;;;;;5052492;28;20068;-60
2024/03/21 04:52:25;;;;;;;10.18;7.07;;;;;;;;;;5053092;28;20384;-60
2024/03/21 04:54:52;;;;;;;11.43;8.48;;;;;;;;;;5052610;28;20136;-61
2024/03/21 04:57:19;;;;;;;11.80;8.60;;;;;;;;;;5060498;28;20057;-60
2024/03/21 04:59:46;;;;;;;15.30;10.85;;;;;;;;;;5052647;28;20491;-61
2024/03/21 05:02:11;;;;;;;13.02;9.32;;;;;;;;;;5052903;28;20045;-60
2024/03/21 05:04:38;;;;;;;13.02;9.20;;;;;;;;;;5055223;28;20548;-61
2024/03/21 05:07:04;;;;;;;13.52;9.32;;;;;;;;;;5072678;28;20052;-60
2024/03/21 05:09:31;;;;;;;12.50;9.10;;;;;;;;;;5072623;28;20062;-61
2024/03/21 05:11:57;;;;;;;14.32;11.07;;;;;;;;;;5069147;28;20056;-61
2024/03/21 05:14:25;;;;;;;13.07;8.88;;;;;;;;;;5071186;28;20175;-61
2024/03/21 05:16:51;;;;;;;12.10;8.40;;;;;;;;;;5071215;28;20131;-61
2024/03/21 05:19:18;;;;;;;12.93;8.57;;;;;;;;;;5067747;28;20513;-61
2024/03/21 05:21:43;;;;;;;11.52;8.05;;;;;;;;;;5052762;28;20052;-61
2024/03/21 05:24:10;;;;;;;11.80;9.23;;;;;;;;;;5068727;28;20477;-61
2024/03/21 05:26:36;;;;;;;10.90;8.70;;;;;;;;;;5060855;28;20056;-61
2024/03/21 05:29:03;;;;;;;13.63;9.25;;;;;;;;;;5089094;28;20055;-61
2024/03/21 05:31:30;;;;;;;14.98;9.90;;;;;;;;;;5076449;28;20051;-61
2024/03/21 05:33:58;;;;;;;17.05;11.95;;;;;;;;;;5058695;28;20417;-61
2024/03/21 05:36:24;;;;;;;14.45;11.38;;;;;;;;;;5072388;28;20056;-61
2024/03/21 05:38:50;;;;;;;13.43;9.18;;;;;;;;;;5062835;28;20498;-61
2024/03/21 05:41:16;;;;;;;13.98;10.63;;;;;;;;;;5052168;28;20045;-61
2024/03/21 05:43:43;;;;;;;16.38;12.57;;;;;;;;;;5070688;28;20138;-61
2024/03/21 05:46:09;;;;;;;19.45;14.30;;;;;;;;;;5074204;28;20061;-60
2024/03/21 05:48:37;;;;;;;18.45;14.00;;;;;;;;;;5076551;28;20478;-61
2024/03/21 05:51:04;;;;;;;23.17;15.95;;;;;;;;;;5076134;28;20045;-61
2024/03/21 05:53:31;;;;;;;16.65;11.73;;;;;;;;;;5076494;28;20482;-60
2024/03/21 05:55:58;;;;;;;17.65;12.48;;;;;;;;;;5070422;28;20593;-61
2024/03/21 05:58:25;;;;;;;21.20;15.20;;;;;;;;;;5057034;28;20060;-61
2024/03/21 06:00:54;;;;;;;22.10;16.17;;;;;;;;;;5055946;28;20045;-60
2024/03/21 06:03:21;;;;;;;22.58;15.05;;;;;;;;;;5056003;28;20394;-61
2024/03/21 06:05:49;;;;;;;22.48;17.92;;;;;;;;;;5055822;28;20115;-61
2024/03/21 06:08:16;;;;;;;25.13;15.60;;;;;;;;;;5056130;28;20064;-61
2024/03/21 06:10:41;;;;;;;24.40;17.33;;;;;;;;;;5057023;28;20059;-61
2024/03/21 06:13:08;;;;;;;21.38;15.90;;;;;;;;;;5064673;28;20057;-60
2024/03/21 06:15:34;;;;;;;21.67;16.75;;;;;;;;;;5055079;28;20056;-61
2024/03/21 06:18:01;;;;;;;19.30;16.02;;;;;;;;;;5068224;28;20080;-60
2024/03/21 06:20:27;;;;;;;20.10;15.75;;;;;;;;;;5075765;28;20482;-61
2024/03/21 06:22:55;;;;;;;22.65;16.42;;;;;;;;;;5074947;28;20086;-60
2024/03/21 06:25:21;;;;;;;27.85;17.60;;;;;;;;;;5075059;28;20071;-61
2024/03/21 06:27:48;;;;;;;22.77;16.70;;;;;;;;;;5073356;28;20128;-61
2024/03/21 06:30:14;;;;;;;24.00;16.80;;;;;;;;;;5069423;28;20059;-61
2024/03/21 06:32:41;;;;;;;22.15;16.33;;;;;;;;;;5069691;28;20049;-61
2024/03/21 06:35:07;;;;;;;23.60;17.25;;;;;;;;;;5068927;28;20059;-61
2024/03/21 06:37:34;;;;;;;22.63;16.42;;;;;;;;;;5069000;28;20045;-61
2024/03/21 06:40:06;;;;;;;22.00;16.92;;;;;;;;;;5071176;28;20048;-59
2024/03/21 06:42:33;;;;;;;23.20;15.95;;;;;;;;;;5073447;28;20379;-60
2024/03/21 06:44:59;;;;;;;19.77;15.60;;;;;;;;;;5061344;28;20053;-61
2024/03/21 06:47:26;;;;;;;21.77;16.05;;;;;;;;;;5035734;28;20061;-61
2024/03/21 06:49:53;;;;;;;22.25;16.75;;;;;;;;;;5041384;28;20053;-61
2024/03/21 06:52:20;;;;;;;21.60;15.77;;;;;;;;;;5052897;28;20052;-61
2024/03/21 06:54:46;;;;;;;22.40;16.02;;;;;;;;;;5046184;28;20053;-60
2024/03/21 06:57:14;;;;;;;22.45;16.52;;;;;;;;;;5051095;28;20482;-59
2024/03/21 06:59:40;;;;;;;22.27;16.67;;;;;;;;;;5042623;28;20434;-59
2024/03/21 07:02:07;;;;;;;24.27;17.40;;;;;;;;;;5045771;28;20052;-60
2024/03/21 07:04:33;;;;;;;23.70;16.75;;;;;;;;;;5048651;28;20054;-59
2024/03/21 07:07:00;;;;;;;20.45;16.75;;;;;;;;;;5036262;28;20121;-59
2024/03/21 07:09:26;;;;;;;23.73;17.08;;;;;;;;;;5051001;28;20402;-59
2024/03/21 07:11:53;;;;;;;22.10;18.08;;;;;;;;;;5051656;28;20053;-59
2024/03/21 07:14:20;;;;;;;22.75;18.17;;;;;;;;;;5056447;28;20060;-59
2024/03/21 07:16:47;;;;;;;23.05;18.67;;;;;;;;;;5073754;28;20059;-59
2024/03/21 07:19:12;;;;;;;23.92;18.40;;;;;;;;;;5073345;28;20418;-58
2024/03/21 07:21:39;;;;;;;24.80;18.35;;;;;;;;;;5032878;28;20050;-59
2024/03/21 07:24:05;;;;;;;23.38;19.17;;;;;;;;;;5047391;28;20064;-59
2024/03/21 07:26:32;;;;;;;20.02;16.55;;;;;;;;;;5055012;28;20048;-58
2024/03/21 07:28:58;;;;;;;21.38;17.58;;;;;;;;;;5054176;28;20060;-59
2024/03/21 07:31:27;;;;;;;20.40;17.25;;;;;;;;;;5064701;28;20482;-59
2024/03/21 07:33:53;;;;;;;23.65;18.75;;;;;;;;;;5073979;28;20492;-59
2024/03/21 07:36:19;;;;;;;21.58;18.02;;;;;;;;;;5073584;28;20052;-59
2024/03/21 07:38:46;;;;;;;22.30;17.95;;;;;;;;;;5053202;28;20064;-59
2024/03/21 07:41:13;;;;;;;20.92;16.55;;;;;;;;;;5053227;28;20045;-58
2024/03/21 07:43:40;;;;;;;20.10;17.77;;;;;;;;;;5072383;28;20052;-60
2024/03/21 07:46:07;;;;;;;19.90;15.52;;;;;;;;;;5072481;28;20063;-59
2024/03/21 07:48:34;;;;;;;19.73;16.08;;;;;;;;;;5073090;28;20052;-59
2024/03/21 07:51:01;;;;;;;18.00;14.82;;;;;;;;;;5073394;28;20052;-59
2024/03/21 07:53:27;;;;;;;15.55;13.43;;;;;;;;;;5053698;28;20048;-59
2024/03/21 07:55:55;;;;;;;17.10;13.35;;;;;;;;;;5053231;28;20454;-59
2024/03/21 07:58:21;;;;;;;14.90;12.60;;;;;;;;;;5067410;28;20056;-59
2024/03/21 08:00:48;;;;;;;15.45;12.18;;;;;;;;;;5059511;28;20455;-59
2024/03/21 08:03:14;;;;;;;14.90;11.88;;;;;;;;;;5072936;28;20052;-59
2024/03/21 08:05:42;;;;;;;13.48;12.05;;;;;;;;;;5072974;28;20401;-59
2024/03/21 08:08:07;;;;;;;14.32;12.35;;;;;;;;;;5056612;28;20060;-59
2024/03/21 08:10:35;;;;;;;15.43;12.80;;;;;;;;;;5051485;28;20175;-59
2024/03/21 08:13:01;;;;;;;16.10;12.15;;;;;;;;;;5044952;28;20056;-59
2024/03/21 08:15:28;;;;;;;13.30;11.90;;;;;;;;;;5052312;28;20059;-59
2024/03/21 08:17:53;;;;;;;14.65;12.35;;;;;;;;;;5053187;28;20049;-59
2024/03/21 08:20:20;;;;;;;13.10;11.75;;;;;;;;;;5051632;28;20414;-58
2024/03/21 08:22:47;;;;;;;13.70;11.63;;;;;;;;;;5050312;28;20055;-58
2024/03/21 08:25:15;;;;;;;13.95;11.13;;;;;;;;;;5052419;28;20060;-58
2024/03/21 08:27:42;;;;;;;13.63;11.98;;;;;;;;;;5053991;28;20375;-58
2024/03/21 08:30:09;;;;;;;12.13;10.82;;;;;;;;;;5052793;28;20064;-59
2024/03/21 08:32:34;;;;;;;15.27;10.50;;;;;;;;;;5053221;28;20380;-59
2024/03/21 08:35:01;;;;;;;10.27;9.18;;;;;;;;;;5053176;28;20055;-59
2024/03/21 08:37:27;;;;;;;11.90;9.40;;;;;;;;;;5048087;28;20427;-59
2024/03/21 08:39:57;;;;;;;10.68;8.77;;;;;;;;;;5051628;28;20055;-59
2024/03/21 08:42:23;;;;;;;10.27;8.68;;;;;;;;;;5043903;28;20494;-59
2024/03/21 08:44:52;;;;;;;11.82;9.60;;;;;;;;;;5066803;28;20071;-59
2024/03/21 08:47:18;;;;;;;11.82;9.63;;;;;;;;;;5093265;28;20048;-58
2024/03/21 08:49:45;;;;;;;10.65;9.55;;;;;;;;;;5092339;28;20048;-58
2024/03/21 08:52:10;;;;;;;10.32;8.43;;;;;;;;;;5081914;28;20044;-59
2024/03/21 08:54:37;;;;;;;9.50;8.43;;;;;;;;;;5072431;28;20397;-59
2024/03/21 08:57:04;;;;;;;9.07;8.05;;;;;;;;;;5075107;28;20051;-59
2024/03/21 08:59:31;;;;;;;9.15;8.20;;;;;;;;;;5092852;28;20134;-59
2024/03/21 09:01:57;;;;;;;9.85;8.40;;;;;;;;;;5092494;28;20048;-58
2024/03/21 09:04:24;;;;;;;9.70;8.27;;;;;;;;;;5092110;28;20485;-59
2024/03/21 09:06:50;;;;;;;7.68;6.88;;;;;;;;;;5084006;28;20056;-58
2024/03/21 09:09:17;;;;;;;8.52;7.10;;;;;;;;;;5072141;28;20560;-59
2024/03/21 09:11:42;;;;;;;8.15;6.40;;;;;;;;;;5072366;28;20059;-59
2024/03/21 09:14:11;;;;;;;8.60;6.43;;;;;;;;;;5090243;28;20056;-59
2024/03/21 09:16:36;;;;;;;7.65;6.20;;;;;;;;;;5092208;28;20401;-59
2024/03/21 09:19:03;;;;;;;6.20;4.93;;;;;;;;;;5091780;28;20048;-59
2024/03/21 09:21:31;;;;;;;6.80;4.65;;;;;;;;;;5080476;28;20087;-59
2024/03/21 09:23:58;;;;;;;5.57;5.00;;;;;;;;;;5072326;28;20045;-59
2024/03/21 09:26:24;;;;;;;6.15;5.35;;;;;;;;;;5072104;28;20052;-59
2024/03/21 09:28:53;;;;;;;5.72;4.72;;;;;;;;;;5085305;28;20083;-58
2024/03/21 09:31:20;;;;;;;5.68;4.43;;;;;;;;;;5091965;28;20056;-59
2024/03/21 09:33:47;;;;;;;5.15;4.28;;;;;;;;;;5092278;28;20059;-59
2024/03/21 09:36:13;;;;;;;4.57;4.18;;;;;;;;;;5073589;28;20083;-60
2024/03/21 09:38:39;;;;;;;4.65;4.13;;;;;;;;;;5071061;28;20531;-59
2024/03/21 09:41:08;;;;;;;4.75;4.30;;;;;;;;;;5071749;28;20052;-57
2024/03/21 09:43:36;;;;;;;;;;;;;;;;;;5081290;28;20048;-58
2024/03/21 09:46:04;;;;;;;4.47;4.07;;;;;;;;;;5091407;28;19920;-58
2024/03/21 09:48:32;;;;;;;4.90;4.50;;;;;;;;;;5092089;28;20407;-58
2024/03/21 09:50:58;;;;;;;4.72;4.32;;;;;;;;;;5073430;28;20059;-58
2024/03/21 09:53:25;;;;;;;4.35;3.95;;;;;;;;;;5051761;28;20132;-58
2024/03/21 09:55:52;;;;;;;3.95;3.45;;;;;;;;;;5059050;28;20064;-58
2024/03/21 09:58:19;;;;;;;4.00;3.70;;;;;;;;;;5076259;28;20044;-58
2024/03/21 10:00:45;;;;;;;3.75;3.45;;;;;;;;;;5091717;28;20056;-57
2024/03/21 10:03:14;;;;;;;4.13;3.70;;;;;;;;;;5088188;28;20128;-58
2024/03/21 10:05:41;;;;;;;4.00;3.63;;;;;;;;;;5070200;28;20055;-57
2024/03/21 10:08:08;;;;;;;3.90;3.60;;;;;;;;;;5071229;28;20064;-58
2024/03/21 10:10:34;;;;;;;3.92;3.60;;;;;;;;;;5071663;28;20148;-57
2024/03/21 10:13:01;;;;;;;4.20;3.78;;;;;;;;;;5071988;28;20386;-57
2024/03/21 10:15:27;;;;;;;4.63;4.25;;;;;;;;;;5070556;28;20052;-58
2024/03/21 10:17:54;;;;;;;4.85;3.83;;;;;;;;;;5071812;28;20074;-58
2024/03/21 10:20:19;;;;;;;4.85;4.45;;;;;;;;;;5071321;28;20528;-59
2024/03/21 10:22:48;;;;;;;4.80;4.30;;;;;;;;;;5067637;28;20049;-58
2024/03/21 10:25:14;;;;;;;4.85;4.43;;;;;;;;;;5063227;28;20060;-58
2024/03/21 10:27:43;;;;;;;5.03;4.13;;;;;;;;;;5051800;28;20049;-58
2024/03/21 10:30:14;;;;;;;4.88;4.47;;;;;;;;;;5083799;28;20052;-58
2024/03/21 10:32:41;;;;;;;5.55;5.05;;;;;;;;;;5082273;28;20049;-57
2024/03/21 10:35:07;;;;;;;5.18;4.78;;;;;;;;;;5075054;28;20387;-58
2024/03/21 10:37:35;;;;;;;6.18;4.95;;;;;;;;;;5071774;28;20052;-58
2024/03/21 10:40:03;;;;;;;5.75;5.18;;;;;;;;;;5074467;28;20072;-58
2024/03/21 10:42:31;;;;;;;5.80;5.30;;;;;;;;;;5074795;28;20044;-58
2024/03/21 10:44:59;;;;;;;5.17;4.60;;;;;;;;;;5086747;28;20052;-57
2024/03/21 10:47:26;;;;;;;4.40;4.00;;;;;;;;;;5095129;28;20401;-57
2024/03/21 10:49:53;;;;;;;5.82;4.43;;;;;;;;;;5094661;28;20063;-58
2024/03/21 10:52:20;;;;;;;4.45;4.05;;;;;;;;;;5074512;28;20048;-58
2024/03/21 10:54:49;;;;;;;5.85;5.22;;;;;;;;;;5074368;28;20052;-57
2024/03/21 10:57:17;;;;;;;5.03;4.60;;;;;;;;;;5074891;28;20397;-58
2024/03/21 10:59:43;;;;;;;5.75;5.18;;;;;;;;;;5082574;28;20052;-58
2024/03/21 11:02:14;;;;;;;5.93;5.43;;;;;;;;;;5094184;28;20055;-58
2024/03/21 11:04:41;;;;;;;5.65;5.13;;;;;;;;;;5094236;28;20405;-57
2024/03/21 11:07:08;;;;;;;6.43;5.53;;;;;;;;;;5078453;28;20401;-57
2024/03/21 11:09:34;;;;;;;6.85;5.43;;;;;;;;;;5074604;28;20516;-58
2024/03/21 11:12:00;;;;;;;5.97;5.00;;;;;;;;;;5074472;28;20059;-58
2024/03/21 11:14:28;;;;;;;5.70;4.93;;;;;;;;;;5077781;28;20531;-58
2024/03/21 11:16:54;;;;;;;7.38;5.50;;;;;;;;;;5094567;28;20060;-58
2024/03/21 11:19:21;;;;;;;5.75;5.15;;;;;;;;;;5094128;28;20413;-58
2024/03/21 11:21:48;;;;;;;5.28;4.75;;;;;;;;;;5079249;28;20513;-58
2024/03/21 11:24:14;;;;;;;5.25;4.53;;;;;;;;;;5074293;28;20056;-58
2024/03/21 11:26:42;;;;;;;4.97;4.35;;;;;;;;;;5073891;28;20048;-59
2024/03/21 11:29:08;;;;;;;5.10;4.68;;;;;;;;;;5057367;28;20056;-58
2024/03/21 11:31:36;;;;;;;6.20;5.00;;;;;;;;;;5057032;28;20049;-58
2024/03/21 11:34:04;;;;;;;5.10;4.60;;;;;;;;;;5053753;28;20057;-58
2024/03/21 11:36:30;;;;;;;5.32;4.82;;;;;;;;;;5067502;28;20136;-59
2024/03/21 11:38:56;;;;;;;5.63;4.35;;;;;;;;;;5053841;28;20052;-59
2024/03/21 11:41:24;;;;;;;5.85;4.57;;;;;;;;;;5070702;28;20397;-58
2024/03/21 11:43:52;;;;;;;5.00;4.50;;;;;;;;;;5073404;28;20513;-58
2024/03/21 11:46:19;;;;;;;6.15;4.50;;;;;;;;;;5084357;28;20048;-57
2024/03/21 11:48:59;;;;;;;5.10;4.30;;;;;;;;;;5073741;28;20044;-58
2024/03/21 11:51:25;;;;;;;4.88;4.20;;;;;;;;;;5070053;28;20067;-58
2024/03/21 11:53:52;;;;;;;4.90;4.40;;;;;;;;;;5073414;28;20472;-58
2024/03/21 11:56:18;;;;;;;4.63;4.22;;;;;;;;;;5073360;28;20063;-58
2024/03/21 11:58:46;;;;;;;5.03;4.57;;;;;;;;;;5093141;28;20455;-58
2024/03/21 12:01:11;;;;;;;6.22;4.60;;;;;;;;;;5092400;28;20466;-58
2024/03/21 12:03:38;;;;;;;5.78;5.13;;;;;;;;;;5070033;28;20055;-58
2024/03/21 12:06:05;;;;;;;6.10;5.00;;;;;;;;;;5053288;28;20056;-57
2024/03/21 12:08:32;;;;;;;5.90;5.15;;;;;;;;;;5073354;28;20482;-58
2024/03/21 12:10:58;;;;;;;6.05;5.30;;;;;;;;;;5073115;28;20414;-58
2024/03/21 12:13:25;;;;;;;7.82;5.90;;;;;;;;;;5073073;28;20053;-58
2024/03/21 12:15:51;;;;;;;7.97;5.85;;;;;;;;;;5079694;28;20071;-58
2024/03/21 12:18:20;;;;;;;5.80;5.18;;;;;;;;;;5093168;28;20059;-58
2024/03/21 12:20:47;;;;;;;8.25;5.25;;;;;;;;;;5088286;28;20055;-58
2024/03/21 12:23:14;;;;;;;5.78;5.18;;;;;;;;;;5071609;28;20052;-59
2024/03/21 12:25:41;;;;;;;6.20;4.80;;;;;;;;;;5073214;28;20062;-58
2024/03/21 12:28:06;;;;;;;5.03;4.47;;;;;;;;;;5072614;28;20048;-58
2024/03/21 12:30:37;;;;;;;5.40;4.90;;;;;;;;;;5073286;28;20052;-58
2024/03/21 12:33:05;;;;;;;6.03;5.25;;;;;;;;;;5065729;28;20049;-58
2024/03/21 12:35:32;;;;;;;6.30;4.43;;;;;;;;;;5052628;28;20052;-59
2024/03/21 12:37:58;;;;;;;5.57;4.63;;;;;;;;;;5069853;28;20064;-58
2024/03/21 12:40:26;;;;;;;4.82;3.95;;;;;;;;;;5072553;28;20059;-59
2024/03/21 12:42:52;;;;;;;6.05;3.72;;;;;;;;;;5072193;28;20049;-58
2024/03/21 12:45:19;;;;;;;4.25;3.85;;;;;;;;;;5072075;28;20048;-58
2024/03/21 12:47:45;;;;;;;5.25;3.80;;;;;;;;;;5090905;28;20397;-58
2024/03/21 12:50:11;;;;;;;4.82;3.58;;;;;;;;;;5092245;28;20062;-58
2024/03/21 12:52:37;;;;;;;4.95;3.35;;;;;;;;;;5073077;28;20409;-59
2024/03/21 12:55:06;;;;;;;4.13;3.72;;;;;;;;;;5071587;28;20056;-59
2024/03/21 12:57:33;;;;;;;5.25;4.45;;;;;;;;;;5072486;28;20052;-59
2024/03/21 13:00:00;;;;;;;5.53;3.70;;;;;;;;;;5072297;28;20060;-59
2024/03/21 13:02:26;;;;;;;5.22;3.45;;;;;;;;;;5083163;28;20056;-59
2024/03/21 13:04:53;;;;;;;4.38;3.63;;;;;;;;;;5051924;28;20406;-59
2024/03/21 13:07:18;;;;;;;5.68;4.30;;;;;;;;;;5063896;28;20081;-59
2024/03/21 13:09:45;;;;;;;6.35;5.18;;;;;;;;;;5072075;28;20127;-59
2024/03/21 13:12:11;;;;;;;5.88;5.03;;;;;;;;;;5072397;28;20059;-59
2024/03/21 13:14:39;;;;;;;5.82;5.18;;;;;;;;;;5072510;28;20048;-59
2024/03/21 13:17:05;;;;;;;7.57;5.40;;;;;;;;;;5079224;28;20055;-59
2024/03/21 13:19:32;;;;;;;5.38;4.88;;;;;;;;;;5091500;28;20055;-59
2024/03/21 13:21:58;;;;;;;6.10;5.07;;;;;;;;;;5078681;28;20056;-59
2024/03/21 13:24:25;;;;;;;7.55;5.88;;;;;;;;;;5072184;28;20041;-59
2024/03/21 13:26:51;;;;;;;8.02;6.20;;;;;;;;;;5071938;28;20052;-59
2024/03/21 13:29:18;;;;;;;7.55;6.72;;;;;;;;;;5071976;28;20367;-59
2024/03/21 13:31:45;;;;;;;7.28;6.43;;;;;;;;;;5073349;28;20052;-59
2024/03/21 13:34:12;;;;;;;8.20;6.95;;;;;;;;;;5070276;28;20052;-59
2024/03/21 13:36:38;;;;;;;7.65;6.82;;;;;;;;;;5070261;28;20119;-59
2024/03/21 13:39:08;;;;;;;8.07;6.65;;;;;;;;;;5071882;28;20099;-59
2024/03/21 13:41:34;;;;;;;7.50;6.80;;;;;;;;;;5071687;28;20067;-59
2024/03/21 13:44:00;;;;;;;8.85;7.15;;;;;;;;;;5071435;28;20452;-59
2024/03/21 13:46:26;;;;;;;8.65;7.75;;;;;;;;;;5071479;28;20061;-59
2024/03/21 13:48:56;;;;;;;7.72;7.00;;;;;;;;;;5087093;28;20071;-60
2024/03/21 13:51:22;;;;;;;8.38;7.65;;;;;;;;;;5083565;28;20596;-59
2024/03/21 13:53:48;;;;;;;7.63;6.93;;;;;;;;;;5071672;28;20060;-59
2024/03/21 13:56:14;;;;;;;8.40;7.45;;;;;;;;;;5071707;28;20053;-59
2024/03/21 13:58:41;;;;;;;8.43;7.60;;;;;;;;;;5072027;28;20152;-60
2024/03/21 14:01:07;;;;;;;12.63;8.48;;;;;;;;;;5072155;28;20067;-59
2024/03/21 14:03:34;;;;;;;9.50;8.60;;;;;;;;;;5062974;28;20056;-60
2024/03/21 14:06:04;;;;;;;10.13;8.95;;;;;;;;;;5060843;28;20052;-59
2024/03/21 14:08:30;;;;;;;9.13;8.32;;;;;;;;;;5078654;28;20489;-59
2024/03/21 14:10:56;;;;;;;9.25;8.45;;;;;;;;;;5095842;28;20486;-59
2024/03/21 14:13:24;;;;;;;7.60;6.90;;;;;;;;;;5069617;28;20128;-59
2024/03/21 14:15:50;;;;;;;9.43;7.63;;;;;;;;;;5055587;28;20052;-59
2024/03/21 14:18:17;;;;;;;8.60;7.80;;;;;;;;;;5076006;28;20048;-59
2024/03/21 14:20:44;;;;;;;8.73;7.13;;;;;;;;;;5085697;28;20056;-59
2024/03/21 14:23:13;;;;;;;7.97;7.28;;;;;;;;;;5075750;28;20493;-59
2024/03/21 14:25:38;;;;;;;8.40;7.60;;;;;;;;;;5075332;28;20041;-59
2024/03/21 14:28:05;;;;;;;8.95;8.05;;;;;;;;;;5079684;28;20569;-59
2024/03/21 14:30:31;;;;;;;7.68;6.97;;;;;;;;;;5095434;28;20071;-59
2024/03/21 14:32:58;;;;;;;7.63;6.93;;;;;;;;;;5086947;28;20040;-58
2024/03/21 14:35:25;;;;;;;8.00;6.40;;;;;;;;;;5090017;28;20068;-59